This is the latest recevied weather packets stored in our database for station/object KF0KFL-13. If no packets are shown the sender has not sent any weather packets the latest 1 day(s).
| Time | Temp. | Humidity | Pressure | Rain* | Wind** | Luminosity | Snow |
|---|---|---|---|---|---|---|---|
| 1836274412 | 17.78° C | 99% | 1015.6 hPa | 0 mm | 0 m/s | 0 W/m² | - |
| 1836274366 | 17.78° C | 99% | 1015.6 hPa | 0 mm | 0 m/s | 0 W/m² | - |
| 1778051147 | 1.11° C | 70% | 1013.6 hPa | 0 mm | 0 m/s | 0 W/m² | - |
| 1778049917 | 1.67° C | 67% | 1013.7 hPa | 0 mm | 0 m/s | 0 W/m² | - |
| 1778048687 | 2.22° C | 65% | 1013.4 hPa | 0 mm | 0.45 m/s, 49° | 0 W/m² | - |
| 1778047457 | 2.22° C | 64% | 1013.5 hPa | 0 mm | 0.45 m/s, 54° | 0 W/m² | - |
| 1778046227 | 2.22° C | 65% | 1013.4 hPa | 0 mm | 0.45 m/s, 20° | 0 W/m² | - |
| 1778045033 | 2.78° C | 63% | 1013.2 hPa | 0 mm | 0.45 m/s, 20° | 0 W/m² | - |
| 1778044997 | 2.78° C | 63% | 1013.2 hPa | 0 mm | 0.45 m/s, 20° | 0 W/m² | - |
| 1778043803 | 3.33° C | 61% | 1012.9 hPa | 0 mm | 0.45 m/s, 20° | 0 W/m² | - |
| 1778043767 | 3.33° C | 61% | 1012.9 hPa | 0 mm | 0.45 m/s, 20° | 0 W/m² | - |
| 1778042537 | 3.33° C | 59% | 1012.7 hPa | 0 mm | 0.89 m/s, 14° | 0 W/m² | - |
| 1778041307 | 3.89° C | 56% | 1012.9 hPa | 0 mm | 0.89 m/s, 19° | 0 W/m² | - |
| 1778040077 | 4.44° C | 55% | 1012.7 hPa | 0 mm | 0.45 m/s, 26° | 0 W/m² | - |
| 1778038882 | 4.44° C | 53% | 1012.5 hPa | 0 mm | 1.34 m/s, 14° | 0 W/m² | - |
| 1778038847 | 4.44° C | 53% | 1012.5 hPa | 0 mm | 1.34 m/s, 14° | 0 W/m² | - |
| 1778037648 | 5° C | 53% | 1012.6 hPa | 0 mm | 0.89 m/s, 21° | 0 W/m² | - |
| 1778037617 | 5° C | 53% | 1012.6 hPa | 0 mm | 0.89 m/s, 21° | 0 W/m² | - |
| 1778036475 | 5.56° C | 52% | 1012.2 hPa | 0 mm | 1.34 m/s, 24° | 0 W/m² | - |
| 1778036387 | 5.56° C | 52% | 1012.2 hPa | 0 mm | 1.34 m/s, 24° | 0 W/m² | - |
| 1778035157 | 5.56° C | 52% | 1012.1 hPa | 0 mm | 1.79 m/s, 1° | 0 W/m² | - |
| 1778033957 | 6.11° C | 51% | 1011.8 hPa | 0 mm | 1.34 m/s, 23° | 0 W/m² | - |
| 1778032727 | 6.67° C | 50% | 1011.3 hPa | 0 mm | 1.34 m/s, 16° | 0 W/m² | - |
| 1778031497 | 6.67° C | 48% | 1011 hPa | 0 mm | 1.79 m/s, 8° | 0 W/m² | - |
| 1778030297 | 7.22° C | 48% | 1010.7 hPa | 0 mm | 1.34 m/s, 9° | 1 W/m² | - |
* Rain latest hour (hover to see other rain measurements)
** Current wind speed in m/s (hover to see current wind gust speed)